createdAt,value
2023-04-15T00:01:48.565Z,22.03
2023-04-15T00:04:15.217Z,22.02
2023-04-15T00:06:41.865Z,22.01
2023-04-15T00:09:08.445Z,22.03
2023-04-15T00:11:34.994Z,22.01
2023-04-15T00:14:01.545Z,22.02
2023-04-15T00:16:28.142Z,22.00
2023-04-15T00:18:54.711Z,21.95
2023-04-15T00:21:21.288Z,22.00
2023-04-15T00:23:47.831Z,21.96
2023-04-15T00:26:14.420Z,21.94
2023-04-15T00:28:40.978Z,21.95
2023-04-15T00:31:07.546Z,21.95
2023-04-15T00:33:34.208Z,21.97
2023-04-15T00:36:00.774Z,21.91
2023-04-15T00:38:27.350Z,21.90
2023-04-15T00:40:53.897Z,21.95
2023-04-15T00:43:20.461Z,21.92
2023-04-15T00:45:47.034Z,21.93
2023-04-15T00:48:13.651Z,21.87
2023-04-15T00:50:40.202Z,21.89
2023-04-15T00:53:06.817Z,21.89
2023-04-15T00:55:33.358Z,21.90
2023-04-15T00:57:59.924Z,21.90
2023-04-15T01:00:26.490Z,21.89
2023-04-15T01:02:53.221Z,22.01
2023-04-15T01:05:19.844Z,21.94
2023-04-15T01:07:46.412Z,21.97
2023-04-15T01:10:12.951Z,21.94
2023-04-15T01:12:39.488Z,21.88
2023-04-15T01:15:06.028Z,21.86
2023-04-15T01:17:32.594Z,21.88
2023-04-15T01:19:59.190Z,21.89
2023-04-15T01:22:25.753Z,21.87
2023-04-15T01:24:52.317Z,21.82
2023-04-15T01:27:18.872Z,21.83
2023-04-15T01:29:45.427Z,21.88
2023-04-15T01:32:11.974Z,21.86
2023-04-15T01:34:38.557Z,21.79
2023-04-15T01:37:05.126Z,21.79
2023-04-15T01:39:31.661Z,21.84
2023-04-15T01:41:58.229Z,21.78
2023-04-15T01:44:24.789Z,21.76
2023-04-15T01:46:51.515Z,21.79
2023-04-15T01:49:18.110Z,21.82
2023-04-15T01:54:11.153Z,21.78
2023-04-15T01:56:37.698Z,21.81
2023-04-15T01:59:04.250Z,21.79
2023-04-15T02:01:30.883Z,21.81
2023-04-15T02:03:57.528Z,21.82
2023-04-15T02:06:24.108Z,21.85
2023-04-15T02:08:50.647Z,21.84
2023-04-15T02:11:17.205Z,21.77
2023-04-15T02:13:43.765Z,21.79
2023-04-15T02:16:10.325Z,21.78
2023-04-15T02:18:36.893Z,21.77
2023-04-15T02:21:03.489Z,21.77
2023-04-15T02:23:30.063Z,21.70
2023-04-15T02:25:56.618Z,21.77
2023-04-15T02:28:23.200Z,21.79
2023-04-15T02:30:49.749Z,21.82
2023-04-15T02:33:16.285Z,21.76
2023-04-15T02:35:42.870Z,21.76
2023-04-15T02:38:09.419Z,21.72
2023-04-15T02:40:35.996Z,21.78
2023-04-15T02:43:02.558Z,21.78
2023-04-15T02:45:29.121Z,21.73
2023-04-15T02:47:55.701Z,21.76
2023-04-15T02:50:22.299Z,21.73
2023-04-15T02:52:48.854Z,21.79
2023-04-15T02:55:15.427Z,21.82
2023-04-15T02:57:42.010Z,21.76
2023-04-15T03:00:08.577Z,21.76
2023-04-15T03:02:35.328Z,21.75
2023-04-15T03:05:01.957Z,21.72
2023-04-15T03:07:28.508Z,21.70
2023-04-15T03:09:55.048Z,21.76
2023-04-15T03:12:21.586Z,21.65
2023-04-15T03:14:48.142Z,21.74
2023-04-15T03:17:14.708Z,21.71
2023-04-15T03:19:41.249Z,21.69
2023-04-15T03:22:07.816Z,21.73
2023-04-15T03:24:34.354Z,21.78
2023-04-15T03:27:00.897Z,21.73
2023-04-15T03:29:27.480Z,21.78
2023-04-15T03:31:54.019Z,21.71
2023-04-15T03:34:20.597Z,21.69
2023-04-15T03:36:47.179Z,21.70
2023-04-15T03:39:13.770Z,21.67
2023-04-15T03:41:40.328Z,21.70
2023-04-15T03:44:06.879Z,21.73
2023-04-15T03:46:33.484Z,21.74
2023-04-15T03:49:00.376Z,21.75
2023-04-15T03:51:27.198Z,21.73
2023-04-15T03:53:53.741Z,21.76
2023-04-15T03:56:20.300Z,21.76
2023-04-15T03:58:46.867Z,21.70
2023-04-15T04:01:13.471Z,21.69
2023-04-15T04:03:40.236Z,21.65
2023-04-15T04:06:06.928Z,21.65
2023-04-15T04:08:33.481Z,21.72
2023-04-15T04:11:00.042Z,21.73
2023-04-15T04:13:26.610Z,21.73
2023-04-15T04:15:53.197Z,21.70
2023-04-15T04:18:19.808Z,21.75
2023-04-15T04:20:46.352Z,21.80
2023-04-15T04:23:12.894Z,21.75
2023-04-15T04:25:39.430Z,21.69
2023-04-15T04:28:05.965Z,21.72
2023-04-15T04:30:32.530Z,21.72
2023-04-15T04:32:59.217Z,21.73
2023-04-15T04:35:25.848Z,21.82
2023-04-15T04:37:52.442Z,21.73
2023-04-15T04:40:19.030Z,21.72
2023-04-15T04:42:45.586Z,21.72
2023-04-15T04:45:12.162Z,21.70
2023-04-15T04:47:38.732Z,21.67
2023-04-15T04:50:05.313Z,21.66
2023-04-15T04:52:31.862Z,21.71
2023-04-15T04:54:58.418Z,21.63
2023-04-15T04:57:24.979Z,21.71
2023-04-15T04:59:51.527Z,21.68
2023-04-15T05:02:18.115Z,21.78
2023-04-15T05:04:44.734Z,21.79
2023-04-15T05:07:11.288Z,21.71
2023-04-15T05:09:37.826Z,21.70
2023-04-15T05:12:07.140Z,21.68
2023-04-15T05:14:33.684Z,21.65
2023-04-15T05:17:00.236Z,21.61
2023-04-15T05:19:26.791Z,21.73
2023-04-15T05:21:53.339Z,21.68
2023-04-15T05:24:19.884Z,21.69
2023-04-15T05:26:46.423Z,21.69
2023-04-15T05:29:13.012Z,21.64
2023-04-15T05:31:39.602Z,21.69
2023-04-15T05:34:06.192Z,21.70
2023-04-15T05:36:32.745Z,21.77
2023-04-15T05:38:59.657Z,21.70
2023-04-15T05:41:26.367Z,21.72
2023-04-15T05:43:52.923Z,21.73
2023-04-15T05:46:19.536Z,21.72
2023-04-15T05:48:46.133Z,21.68
2023-04-15T05:51:12.697Z,21.75
2023-04-15T05:53:39.261Z,21.72
2023-04-15T05:56:05.839Z,21.72
2023-04-15T06:00:58.933Z,21.75
2023-04-15T06:03:25.602Z,21.69
2023-04-15T06:05:52.239Z,21.71
2023-04-15T06:08:18.793Z,21.68
2023-04-15T06:10:45.341Z,21.76
2023-04-15T06:13:11.899Z,21.70
2023-04-15T06:15:38.491Z,21.79
2023-04-15T06:18:05.058Z,21.79
2023-04-15T06:20:31.609Z,21.75
2023-04-15T06:22:58.156Z,21.76
2023-04-15T06:25:24.716Z,21.75
2023-04-15T06:27:51.254Z,21.73
2023-04-15T06:30:17.797Z,21.76
2023-04-15T06:32:44.441Z,21.72
2023-04-15T06:35:11.088Z,21.78
2023-04-15T06:37:37.653Z,21.71
2023-04-15T06:40:04.191Z,21.75
2023-04-15T06:42:30.746Z,21.74
2023-04-15T06:44:57.303Z,21.72
2023-04-15T06:47:23.862Z,21.78
2023-04-15T06:49:50.432Z,21.80
2023-04-15T06:52:16.970Z,21.82
2023-04-15T06:54:43.524Z,21.85
2023-04-15T06:57:10.055Z,21.76
2023-04-15T06:59:36.598Z,21.86
2023-04-15T07:02:03.150Z,21.89
2023-04-15T07:04:29.776Z,21.78
2023-04-15T07:06:56.385Z,21.79
2023-04-15T07:09:22.924Z,21.76
2023-04-15T07:11:49.482Z,21.79
2023-04-15T07:14:16.038Z,21.88
2023-04-15T07:16:42.648Z,21.90
2023-04-15T07:19:09.257Z,21.80
2023-04-15T07:21:35.823Z,21.76
2023-04-15T07:24:02.367Z,21.86
2023-04-15T07:26:28.915Z,21.87
2023-04-15T07:28:55.451Z,21.85
2023-04-15T07:31:22.031Z,21.83
2023-04-15T07:33:48.663Z,21.91
2023-04-15T07:36:15.203Z,21.92
2023-04-15T07:38:41.756Z,21.89
2023-04-15T07:41:08.326Z,21.85
2023-04-15T07:43:34.868Z,21.90
2023-04-15T07:46:01.478Z,21.84
2023-04-15T07:48:28.049Z,21.77
2023-04-15T07:50:54.600Z,21.91
2023-04-15T07:53:21.162Z,21.84
2023-04-15T07:55:47.719Z,21.88
2023-04-15T07:58:14.266Z,21.78
2023-04-15T08:00:40.794Z,21.73
2023-04-15T08:03:07.474Z,21.75
2023-04-15T08:05:34.185Z,21.78
2023-04-15T08:08:00.773Z,21.92
2023-04-15T08:10:27.308Z,21.93
2023-04-15T08:12:53.876Z,21.99
2023-04-15T08:15:20.444Z,22.42
2023-04-15T08:17:47.054Z,22.45
2023-04-15T08:20:13.649Z,22.59
2023-04-15T08:22:40.219Z,22.68
2023-04-15T08:25:06.786Z,22.62
2023-04-15T08:27:33.331Z,22.57
2023-04-15T08:30:01.134Z,22.55
2023-04-15T08:32:28.733Z,22.58
2023-04-15T08:34:55.311Z,22.59
2023-04-15T08:37:21.864Z,22.72
2023-04-15T08:39:48.423Z,22.72
2023-04-15T08:42:14.989Z,22.57
2023-04-15T08:44:41.557Z,22.54
2023-04-15T08:47:08.155Z,22.76
2023-04-15T08:49:34.794Z,22.77
2023-04-15T08:52:01.349Z,22.62
2023-04-15T08:54:27.908Z,22.59
2023-04-15T08:56:54.567Z,22.67
2023-04-15T08:59:21.202Z,22.69
2023-04-15T09:01:47.800Z,22.58
2023-04-15T09:04:14.546Z,22.78
2023-04-15T09:06:41.157Z,22.59
2023-04-15T09:09:07.691Z,22.67
2023-04-15T09:11:34.268Z,22.88
2023-04-15T09:14:00.816Z,22.69
2023-04-15T09:16:27.434Z,22.72
2023-04-15T09:18:54.007Z,22.71
2023-04-15T09:21:20.540Z,22.55
2023-04-15T09:23:47.087Z,22.44
2023-04-15T09:26:13.640Z,22.33
2023-04-15T09:28:40.195Z,22.17
2023-04-15T09:31:06.757Z,22.17
2023-04-15T09:33:33.327Z,22.12
2023-04-15T09:35:59.884Z,22.19
2023-04-15T09:38:26.472Z,22.11
2023-04-15T09:40:53.020Z,22.13
2023-04-15T09:43:19.584Z,22.12
2023-04-15T09:45:46.155Z,22.17
2023-04-15T09:48:12.720Z,22.12
2023-04-15T09:50:39.274Z,22.12
2023-04-15T09:53:05.828Z,22.17
2023-04-15T09:55:32.404Z,22.12
2023-04-15T09:57:58.938Z,22.37
2023-04-15T10:00:25.489Z,22.44
2023-04-15T10:02:52.091Z,22.51
2023-04-15T10:05:18.721Z,22.72
2023-04-15T10:07:45.291Z,22.64
2023-04-15T10:10:11.853Z,22.68
2023-04-15T10:12:38.409Z,22.76
2023-04-15T10:15:04.933Z,22.72
2023-04-15T10:17:31.875Z,22.75
2023-04-15T10:19:58.489Z,23.06
2023-04-15T10:22:25.024Z,22.99
2023-04-15T10:24:51.564Z,22.99
2023-04-15T10:27:18.147Z,22.97
2023-04-15T10:29:44.713Z,22.94
2023-04-15T10:32:11.262Z,22.96
2023-04-15T10:34:37.791Z,22.94
2023-04-15T10:37:04.358Z,22.93
2023-04-15T10:39:30.936Z,22.85
2023-04-15T10:41:57.490Z,22.78
2023-04-15T10:44:24.058Z,22.63
2023-04-15T10:46:50.648Z,22.41
2023-04-15T10:49:17.339Z,22.38
2023-04-15T10:51:43.903Z,22.28
2023-04-15T10:54:10.467Z,22.34
2023-04-15T10:56:37.015Z,22.31
2023-04-15T10:59:03.562Z,22.38
2023-04-15T11:01:30.104Z,22.39
2023-04-15T11:03:56.764Z,22.45
2023-04-15T11:06:23.473Z,22.42
2023-04-15T11:08:50.014Z,22.42
2023-04-15T11:11:16.557Z,22.42
2023-04-15T11:13:43.106Z,22.35
2023-04-15T11:16:09.672Z,22.36
2023-04-15T11:18:36.257Z,22.37
2023-04-15T11:21:02.808Z,22.29
2023-04-15T11:23:29.346Z,22.39
2023-04-15T11:25:55.876Z,22.39
2023-04-15T11:28:22.430Z,22.43
2023-04-15T11:30:48.969Z,22.33
2023-04-15T11:33:15.538Z,22.37
2023-04-15T11:35:42.085Z,22.46
2023-04-15T11:38:08.691Z,22.49
2023-04-15T11:40:35.280Z,22.34
2023-04-15T11:43:01.842Z,22.45
2023-04-15T11:45:28.397Z,22.48
2023-04-15T11:47:54.982Z,22.47
2023-04-15T11:50:21.681Z,22.41
2023-04-15T11:52:48.230Z,22.47
2023-04-15T11:55:14.772Z,22.47
2023-04-15T11:57:41.309Z,22.42
2023-04-15T12:00:07.876Z,22.43
2023-04-15T12:02:34.497Z,22.49
2023-04-15T12:05:01.173Z,22.47
2023-04-15T12:07:27.728Z,22.48
2023-04-15T12:09:54.366Z,22.40
2023-04-15T12:12:20.912Z,22.47
2023-04-15T12:14:47.441Z,22.49
2023-04-15T12:17:14.032Z,22.48
2023-04-15T12:19:40.630Z,22.51
2023-04-15T12:22:07.167Z,22.54
2023-04-15T12:24:33.703Z,22.47
2023-04-15T12:27:00.262Z,22.45
2023-04-15T12:29:26.840Z,22.46
2023-04-15T12:31:53.369Z,22.46
2023-04-15T12:34:19.939Z,22.42
2023-04-15T12:36:46.473Z,22.51
2023-04-15T12:39:13.014Z,22.40
2023-04-15T12:41:39.564Z,22.41
2023-04-15T12:44:06.289Z,22.36
2023-04-15T12:46:33.060Z,22.39
2023-04-15T12:48:59.616Z,22.40
2023-04-15T12:51:26.154Z,22.38
2023-04-15T12:53:52.690Z,22.38
2023-04-15T12:56:19.237Z,22.37
2023-04-15T12:58:45.791Z,22.35
2023-04-15T13:01:12.319Z,22.40
2023-04-15T13:03:39.009Z,22.35
2023-04-15T13:06:05.680Z,22.37
2023-04-15T13:08:32.212Z,22.37
2023-04-15T13:10:58.767Z,22.36
2023-04-15T13:13:25.333Z,22.34
2023-04-15T13:15:51.913Z,22.39
2023-04-15T13:18:18.479Z,22.33
2023-04-15T13:20:45.031Z,22.40
2023-04-15T13:23:11.592Z,22.32
2023-04-15T13:25:38.169Z,22.34
2023-04-15T13:28:04.719Z,22.30
2023-04-15T13:30:31.294Z,22.26
2023-04-15T13:32:57.915Z,22.20
2023-04-15T13:35:24.500Z,22.22
2023-04-15T13:37:51.050Z,22.32
2023-04-15T13:40:17.609Z,22.32
2023-04-15T13:42:44.136Z,22.31
2023-04-15T13:45:10.676Z,22.26
2023-04-15T13:47:37.232Z,22.27
2023-04-15T13:50:03.870Z,22.31
2023-04-15T13:52:30.434Z,22.28
2023-04-15T13:55:19.502Z,22.35
2023-04-15T13:57:43.531Z,22.34
2023-04-15T14:00:10.073Z,22.34
2023-04-15T14:02:36.717Z,22.32
2023-04-15T14:05:03.459Z,22.28
2023-04-15T14:07:30.007Z,22.34
2023-04-15T14:09:56.566Z,22.26
2023-04-15T14:12:23.096Z,22.23
2023-04-15T14:14:49.642Z,22.24
2023-04-15T14:17:16.189Z,22.27
2023-04-15T14:19:42.713Z,22.28
2023-04-15T14:22:09.257Z,22.23
2023-04-15T14:24:35.801Z,22.25
2023-04-15T14:27:02.346Z,22.28
2023-04-15T14:29:28.899Z,22.30
2023-04-15T14:32:11.439Z,22.29
2023-04-15T14:34:39.025Z,22.26
2023-04-15T14:37:05.554Z,22.25
2023-04-15T14:39:32.086Z,22.19
2023-04-15T14:41:58.649Z,22.12
2023-04-15T14:44:25.177Z,22.16
2023-04-15T14:46:51.721Z,22.18
2023-04-15T14:49:18.283Z,22.19
2023-04-15T14:51:44.823Z,22.21
2023-04-15T14:54:11.383Z,22.20
2023-04-15T14:56:37.946Z,22.25
2023-04-15T14:59:04.754Z,22.16
2023-04-15T15:01:31.583Z,22.12
2023-04-15T15:03:58.169Z,22.19
2023-04-15T15:06:24.769Z,22.10
2023-04-15T15:08:51.310Z,22.16
2023-04-15T15:11:17.844Z,22.19
2023-04-15T15:13:44.416Z,22.24
2023-04-15T15:16:13.107Z,22.23
2023-04-15T15:18:40.924Z,22.26
2023-04-15T15:21:07.463Z,22.29
2023-04-15T15:23:33.994Z,22.23
2023-04-15T15:26:00.563Z,22.14
2023-04-15T15:28:27.136Z,22.20
2023-04-15T15:30:53.706Z,22.09
2023-04-15T15:33:20.248Z,22.11
2023-04-15T15:35:46.803Z,22.05
2023-04-15T15:38:13.320Z,22.13
2023-04-15T15:40:39.845Z,22.12
2023-04-15T15:43:06.428Z,22.16
2023-04-15T15:45:32.967Z,22.13
2023-04-15T15:47:59.561Z,22.14
2023-04-15T15:50:26.188Z,22.18
2023-04-15T15:52:52.755Z,22.17
2023-04-15T15:55:19.302Z,22.09
2023-04-15T15:57:45.842Z,22.07
2023-04-15T16:00:12.952Z,22.11
2023-04-15T16:03:05.092Z,22.17
2023-04-15T16:05:26.217Z,22.11
2023-04-15T16:07:52.781Z,22.15
2023-04-15T16:10:19.343Z,22.10
2023-04-15T16:12:46.005Z,22.21
2023-04-15T16:15:12.549Z,22.16
2023-04-15T16:17:39.116Z,22.12
2023-04-15T16:20:05.857Z,22.13
2023-04-15T16:22:32.457Z,22.10
2023-04-15T16:24:59.035Z,22.15
2023-04-15T16:27:25.572Z,22.10
2023-04-15T16:29:52.145Z,22.14
2023-04-15T16:32:18.747Z,22.07
2023-04-15T16:34:45.346Z,22.05
2023-04-15T16:37:11.889Z,22.09
2023-04-15T16:39:38.422Z,22.05
2023-04-15T16:42:04.968Z,22.03
2023-04-15T16:44:31.511Z,22.05
2023-04-15T16:46:58.048Z,22.02
2023-04-15T16:49:24.600Z,22.02
2023-04-15T16:51:52.901Z,22.03
2023-04-15T16:54:20.656Z,22.01
2023-04-15T16:56:47.209Z,21.99
2023-04-15T16:59:13.774Z,22.03
2023-04-15T17:01:40.426Z,22.03
2023-04-15T17:04:07.185Z,22.06
2023-04-15T17:06:33.840Z,22.02
2023-04-15T17:09:00.419Z,22.03
2023-04-15T17:11:26.960Z,22.07
2023-04-15T17:13:53.509Z,22.02
2023-04-15T17:16:20.172Z,22.06
2023-04-15T17:18:46.841Z,22.00
2023-04-15T17:21:13.387Z,22.00
2023-04-15T17:23:39.935Z,22.05
2023-04-15T17:26:06.492Z,22.02
2023-04-15T17:28:33.063Z,21.98
2023-04-15T17:30:59.619Z,21.99
2023-04-15T17:33:59.915Z,22.00
2023-04-15T17:36:12.715Z,22.00
2023-04-15T17:38:39.276Z,21.96
2023-04-15T17:41:05.845Z,21.93
2023-04-15T17:43:32.408Z,21.95
2023-04-15T17:45:58.967Z,21.99
2023-04-15T17:48:25.542Z,22.07
2023-04-15T17:50:52.206Z,21.96
2023-04-15T17:53:18.803Z,21.95
2023-04-15T17:55:45.362Z,21.97
2023-04-15T17:58:11.933Z,21.97
2023-04-15T18:00:38.485Z,21.91
2023-04-15T18:03:05.178Z,21.89
2023-04-15T18:05:31.827Z,21.95
2023-04-15T18:07:58.421Z,21.91
2023-04-15T18:10:24.994Z,21.91
2023-04-15T18:12:51.544Z,21.92
2023-04-15T18:15:18.088Z,21.91
2023-04-15T18:17:44.705Z,21.86
2023-04-15T18:20:11.310Z,21.88
2023-04-15T18:22:37.884Z,21.86
2023-04-15T18:25:04.647Z,21.84
2023-04-15T18:27:31.255Z,21.89
2023-04-15T18:29:57.818Z,21.88
2023-04-15T18:32:24.390Z,21.80
2023-04-15T18:34:50.962Z,21.83
2023-04-15T18:37:17.522Z,21.85
2023-04-15T18:39:44.149Z,21.78
2023-04-15T18:42:10.724Z,21.79
2023-04-15T18:44:37.280Z,21.83
2023-04-15T18:47:03.830Z,21.85
2023-04-15T18:51:56.890Z,21.76
2023-04-15T18:54:23.464Z,21.87
2023-04-15T18:56:50.019Z,21.87
2023-04-15T18:59:29.538Z,21.84
2023-04-15T19:01:57.219Z,21.87
2023-04-15T19:04:23.890Z,21.82
2023-04-15T19:06:50.474Z,21.81
2023-04-15T19:09:17.054Z,21.86
2023-04-15T19:11:43.630Z,21.84
2023-04-15T19:14:10.169Z,21.88
2023-04-15T19:16:36.758Z,21.86
2023-04-15T19:19:03.474Z,21.79
2023-04-15T19:21:30.247Z,21.77
2023-04-15T19:23:56.811Z,21.75
2023-04-15T19:26:23.364Z,21.78
2023-04-15T19:28:49.931Z,21.77
2023-04-15T19:31:16.506Z,21.78
2023-04-15T19:33:43.138Z,21.78
2023-04-15T19:36:09.710Z,21.72
2023-04-15T19:38:36.319Z,21.73
2023-04-15T19:41:02.911Z,21.72
2023-04-15T19:43:29.456Z,21.73
2023-04-15T19:45:56.042Z,21.74
2023-04-15T19:48:22.626Z,21.73
2023-04-15T19:50:49.182Z,21.77
2023-04-15T19:53:15.729Z,21.77
2023-04-15T19:55:42.276Z,21.74
2023-04-15T19:58:08.853Z,21.73
2023-04-15T20:00:35.425Z,21.79
2023-04-15T20:03:02.175Z,21.74
2023-04-15T20:05:28.917Z,21.70
2023-04-15T20:07:55.476Z,21.77
2023-04-15T20:10:22.047Z,21.79
2023-04-15T20:12:52.255Z,21.84
2023-04-15T20:15:19.868Z,21.82
2023-04-15T20:17:46.498Z,21.75
2023-04-15T20:20:13.148Z,21.74
2023-04-15T20:22:39.713Z,21.73
2023-04-15T20:25:06.280Z,21.73
2023-04-15T20:27:32.857Z,21.78
2023-04-15T20:29:59.428Z,21.76
2023-04-15T20:32:26.044Z,21.71
2023-04-15T20:34:52.642Z,21.67
2023-04-15T20:37:19.197Z,21.70
2023-04-15T20:39:45.747Z,21.73
2023-04-15T20:42:12.306Z,21.72
2023-04-15T20:44:38.917Z,21.70
2023-04-15T20:47:05.567Z,21.75
2023-04-15T20:49:32.154Z,21.75
2023-04-15T20:51:58.689Z,21.73
2023-04-15T20:54:25.253Z,21.71
2023-04-15T20:56:51.801Z,21.71
2023-04-15T20:59:18.353Z,21.75
2023-04-15T21:01:44.926Z,21.72
2023-04-15T21:04:11.505Z,21.79
2023-04-15T21:06:38.037Z,21.73
2023-04-15T21:09:04.830Z,21.72
2023-04-15T21:11:53.408Z,21.72
2023-04-15T21:14:18.063Z,21.73
2023-04-15T21:16:44.697Z,21.78
2023-04-15T21:19:11.246Z,21.72
2023-04-15T21:21:37.825Z,21.75
2023-04-15T21:24:04.382Z,21.67
2023-04-15T21:26:30.946Z,21.72
2023-04-15T21:28:57.506Z,21.75
2023-04-15T21:31:24.127Z,21.79
2023-04-15T21:33:50.742Z,21.78
2023-04-15T21:36:17.290Z,21.71
2023-04-15T21:38:43.829Z,21.68
2023-04-15T21:41:10.389Z,21.70
2023-04-15T21:43:36.938Z,21.76
2023-04-15T21:46:22.868Z,21.74
2023-04-15T21:48:50.042Z,21.74
2023-04-15T21:51:16.608Z,21.70
2023-04-15T21:53:43.144Z,21.73
2023-04-15T21:56:09.691Z,21.70
2023-04-15T21:58:36.258Z,21.75
2023-04-15T22:01:02.845Z,21.68
2023-04-15T22:03:29.593Z,21.67
2023-04-15T22:05:56.324Z,21.66
2023-04-15T22:08:22.893Z,21.71
2023-04-15T22:10:49.488Z,21.65
2023-04-15T22:13:16.058Z,21.70
2023-04-15T22:15:42.620Z,21.66
2023-04-15T22:18:09.187Z,21.73
2023-04-15T22:20:35.743Z,21.66
2023-04-15T22:23:02.320Z,21.71
2023-04-15T22:25:28.883Z,21.69
2023-04-15T22:27:55.443Z,21.64
2023-04-15T22:30:22.017Z,21.64
2023-04-15T22:32:48.595Z,21.66
2023-04-15T22:35:15.146Z,21.68
2023-04-15T22:37:41.697Z,21.66
2023-04-15T22:40:08.261Z,21.70
2023-04-15T22:42:34.829Z,21.68
2023-04-15T22:45:01.376Z,21.66
2023-04-15T22:47:27.993Z,21.65
2023-04-15T22:49:54.594Z,21.67
2023-04-15T22:52:30.134Z,21.70
2023-04-15T22:54:57.361Z,21.67
2023-04-15T22:57:23.964Z,21.63
2023-04-15T22:59:50.562Z,21.57
2023-04-15T23:02:17.299Z,21.62
2023-04-15T23:04:44.032Z,21.61
2023-04-15T23:07:10.649Z,21.55
2023-04-15T23:09:37.207Z,21.60
2023-04-15T23:12:03.782Z,21.58
2023-04-15T23:14:30.355Z,21.62
2023-04-15T23:16:57.003Z,21.62
2023-04-15T23:19:23.561Z,21.61
2023-04-15T23:21:50.186Z,21.64
2023-04-15T23:24:16.740Z,21.66
2023-04-15T23:26:43.685Z,21.60
2023-04-15T23:29:10.495Z,21.59
2023-04-15T23:31:37.305Z,21.53
2023-04-15T23:34:03.894Z,21.57
2023-04-15T23:36:30.459Z,21.61
2023-04-15T23:38:57.007Z,21.63
2023-04-15T23:41:23.551Z,21.63
2023-04-15T23:43:50.091Z,21.66
2023-04-15T23:46:16.630Z,21.59
2023-04-15T23:48:43.198Z,21.63
2023-04-15T23:51:09.756Z,21.64
2023-04-15T23:53:36.300Z,21.66
2023-04-15T23:56:02.850Z,21.65
2023-04-15T23:58:29.404Z,21.66
